Hébergeur de fichiers indépendant

utgtrack 10835.gpx

À propos

Type de fichier
Fichier GPX de 50 Ko (application/xml)
Confidentialité
Fichier public, envoyé le 7 mai 2017 à 15:07, depuis l'adresse IP 79.91.x.x (France)
Sécurité
Ne contient aucun Virus ou Malware connus - Dernière vérification: 2 jours
Statistiques
La présente page de téléchargement a été vue 290 fois depuis l'envoi du fichier
Page de téléchargement

Aperçu du fichier


<?xml version="1.0" encoding="UTF-8"?>
<gpx
  version="1.1"
  creator="GPSBabel - http://www.gpsbabel.org"
  xmlns:xsi="http://www.w3.org/2001/XMLSchema-instance"
  xmlns="http://www.topografix.com/GPX/1/1"
  xsi:schemaLocation="http://www.topografix.com/GPX/1/1 http://www.topografix.com/GPX/1/1/gpx.xsd">
<metadata>
<time>2015-10-13T12:05:44Z</time>
<bounds minlat="45.711435000" minlon="5.862424000" maxlat="45.824591000" maxlon="5.909185000"/>
</metadata>
<trk>
  <name>Le grand 8 de la Chambotte - 10835 - UtagawaVTT.com</name>
<trkseg>
<trkpt lat="45.713143000" lon="5.901077000">
  <ele>368.427368</ele>
  <time>2015-10-04T07:13:15Z</time>
</trkpt>
<trkpt lat="45.712896000" lon="5.901047000">
  <ele>368.797302</ele>
  <time>2015-10-04T07:25:13Z</time>
</trkpt>
<trkpt lat="45.712870000" lon="5.901367000">
  <ele>368.948242</ele>
  <time>2015-10-04T07:25:57Z</time>
</trkpt>
<trkpt lat="45.713240000" lon="5.901340000">
  <ele>368.820099</ele>
  <time>2015-10-04T07:26:15Z</time>
</trkpt>
<trkpt lat="45.715409000" lon="5.901055000">
  <ele>368.673737</ele>
  <time>2015-10-04T07:27:24Z</time>
</trkpt>
<trkpt lat="45.717313000" lon="5.899913000">
  <ele>374.469879</ele>
  <time>2015-10-04T07:29:05Z</time>
</trkpt>
<trkpt lat="45.718296000" lon="5.898886000">
  <ele>384.500763</ele>
  <time>2015-10-04T07:30:14Z</time>
</trkpt>
<trkpt lat="45.719099000" lon="5.898655000">
  <ele>390.188293</ele>
  <time>2015-10-04T07:31:03Z</time>
</trkpt>
<trkpt lat="45.721731000" lon="5.898481000">
  <ele>414.015320</ele>
  <time>2015-10-04T07:33:25Z</time>
</trkpt>
<trkpt lat="45.722202000" lon="5.898522000">
  <ele>415.345490</ele>
  <time>2015-10-04T07:33:49Z</time>
</trkpt>
<trkpt lat="45.722411000" lon="5.898648000">
  <ele>415.355011</ele>
  <time>2015-10-04T07:34:08Z</time>
</trkpt>
<trkpt lat="45.724427000" lon="5.897040000">
  <ele>368.964996</ele>
  <time>2015-10-04T07:36:08Z</time>
</trkpt>
<trkpt lat="45.724677000" lon="5.897091000">
  <ele>368.457947</ele>
  <time>2015-10-04T07:36:19Z</time>
</trkpt>
<trkpt lat="45.725069000" lon="5.898057000">
  <ele>370.303162</ele>
  <time>2015-10-04T07:36:51Z</time>
</trkpt>
<trkpt lat="45.725764000" lon="5.898144000">
  <ele>367.955261</ele>
  <time>2015-10-04T07:37:16Z</time>
</trkpt>
<trkpt lat="45.726039000" lon="5.898384000">
  <ele>369.447205</ele>
  <time>2015-10-04T07:37:27Z</time>
</trkpt>
<trkpt lat="45.726155000" lon="5.898893000">
  <ele>378.848541</ele>
  <time>2015-10-04T07:37:40Z</time>
</trkpt>
<trkpt lat="45.726347000" lon="5.899001000">
  <ele>383.456573</ele>
  <time>2015-10-04T07:37:51Z</time>
</trkpt>
<trkpt lat="45.727298000" lon="5.898863000">
  <ele>391.100220</ele>
  <time>2015-10-04T07:39:11Z</time>
</trkpt>
<trkpt lat="45.727606000" lon="5.898716000">
  <ele>389.331879</ele>
  <time>2015-10-04T07:43:21Z</time>
</trkpt>
<trkpt lat="45.729077000" lon="5.898915000">
  <ele>403.767578</ele>
  <time>2015-10-04T07:44:41Z</time>
</trkpt>
<trkpt lat="45.729573000" lon="5.899022000">
  <ele>407.915009</ele>
  <time>2015-10-04T07:45:10Z</time>
</trkpt>
<trkpt lat="45.731988000" lon="5.899314000">
  <ele>412.627960</ele>
  <time>2015-10-04T07:46:31Z</time>
</trkpt>
<trkpt lat="45.732156000" lon="5.899743000">
  <ele>423.046936</ele>
  <time>2015-10-04T07:46:45Z</time>
</trkpt>
<trkpt lat="45.732741000" lon="5.900063000">
  <ele>432.419861</ele>
  <time>2015-10-04T07:47:21Z</time>
</trkpt>
<trkpt lat="45.734652000" lon="5.899630000">
  <ele>448.192505</ele>
  <time>2015-10-04T07:49:14Z</time>
</trkpt>
<trkpt lat="45.734893000" lon="5.899624000">
  <ele>450.762573</ele>
  <time>2015-10-04T07:49:32Z</time>
</trkpt>
<trkpt lat="45.735241000" lon="5.899190000">
  <ele>442.334503</ele>
  <time>2015-10-04T07:49:51Z</time>
</trkpt>
<trkpt lat="45.736066000" lon="5.898951000">
  <ele>442.653503</ele>
  <time>2015-10-04T07:50:16Z</time>
</trkpt>
<trkpt lat="45.736778000" lon="5.898299000">
  <ele>427.504700</ele>
  <time>2015-10-04T07:50:49Z</time>
</trkpt>
<trkpt lat="45.736474000" lon="5.898179000">
  <ele>418.028748</ele>
  <time>2015-10-04T07:51:25Z</time>
</trkpt>
<trkpt lat="45.736021000" lon="5.898084000">
  <ele>407.770599</ele>
  <time>2015-10-04T07:52:19Z</time>
</trkpt>
<trkpt lat="45.735874000" lon="5.898149000">
  <ele>408.533539</ele>
  <time>2015-10-04T07:52:42Z</time>
</trkpt>
<trkpt lat="45.734433000" lon="5.897487000">
  <ele>365.511261</ele>
  <time>2015-10-04T07:53:27Z</time>
</trkpt>
<trkpt lat="45.734069000" lon="5.897625000">
  <ele>366.285004</ele>
  <time>2015-10-04T07:53:38Z</time>
</trkpt>
<trkpt lat="45.733442000" lon="5.897535000">
  <ele>356.763977</ele>
  <time>2015-10-04T07:54:08Z</time>
</trkpt>
<trkpt lat="45.733202000" lon="5.897067000">
  <ele>338.780884</ele>
  <time>2015-10-04T07:54:11Z</time>
</trkpt>
<trkpt lat="45.732941000" lon="5.897153000">
  <ele>337.432587</ele>
  <time>2015-10-04T07:56:03Z</time>
</trkpt>
<trkpt lat="45.733885000" lon="5.896841000">
  <ele>343.744080</ele>
  <time>2015-10-04T07:57:01Z</time>
</trkpt>
<trkpt lat="45.734255000" lon="5.896753000">
  <ele>344.327332</ele>
  <time>2015-10-04T07:57:17Z</time>
</trkpt>
<trkpt lat="45.734645000" lon="5.896568000">
  <ele>339.819244</ele>
  <time>2015-10-04T07:57:31Z</time>
</trkpt>
<trkpt lat="45.737365000" lon="5.895910000">
  <ele>335.187531</ele>
  <time>2015-10-04T07:58:19Z</time>
</trkpt>
<trkpt lat="45.738223000" lon="5.895492000">
  <ele>332.899414</ele>
  <time>2015-10-04T07:58:34Z</time>
</trkpt>
<trkpt lat="45.739749000" lon="5.894000000">
  <ele>340.511078</ele>
  <time>2015-10-04T07:59:55Z</time>
</trkpt>
<trkpt lat="45.739857000" lon="5.893828000">
  <ele>343.485016</ele>
  <time>2015-10-04T08:00:06Z</time>
</trkpt>
<trkpt lat="45.739674000" lon="5.893695000">
  <ele>342.144196</ele>
  <time>2015-10-04T08:00:22Z</time>
</trkpt>
<trkpt lat="45.739686000" lon="5.893416000">
  <ele>340.681061</ele>
  <time>2015-10-04T08:00:44Z</time>
</trkpt>
<trkpt lat="45.740274000" lon="5.893153000">
  <ele>351.928955</ele>
  <time>2015-10-04T08:01:27Z</time>
</trkpt>
<trkpt lat="45.740912000" lon="5.892448000">
  <ele>364.530151</ele>
  <time>2015-10-04T08:02:35Z</time>
</trkpt>
<trkpt lat="45.742144000" lon="5.891221000">
  <ele>370.108063</ele>
  <time>2015-10-04T08:04:08Z</time>
</trkpt>
<trkpt lat="45.742217000" lon="5.891358000">
  <ele>378.631989</ele>
  <time>2015-10-04T08:04:15Z</time>
</trkpt>
<trkpt lat="45.741756000" lon="5.892202000">
  <ele>387.707489</ele>
  <time>2015-10-04T08:05:18Z</time>
</trkpt>
<trkpt lat="45.741696000" lon="5.892427000">
  <ele>390.679993</ele>
  <time>2015-10-04T08:05:30Z</time>
</trkpt>
<trkpt lat="45.741831000" lon="5.892584000">
  <ele>395.065247</ele>
  <time>2015-10-04T08:05:51Z</time>
</trkpt>
<trkpt lat="45.741943000" lon="5.892292000">
  <ele>396.055878</ele>
  <time>2015-10-04T08:06:20Z</time>
</trkpt>
<trkpt lat="45.742297000" lon="5.892005000">
  <ele>404.296021</ele>
  <time>2015-10-04T08:06:55Z</time>
</trkpt>
<trkpt lat="45.742563000" lon="5.891682000">
  <ele>407.691193</ele>
  <time>2015-10-04T08:07:33Z</time>
</trkpt>
<trkpt lat="45.742616000" lon="5.891847000">
  <ele>416.048798</ele>
  <time>2015-10-04T08:08:03Z</time>
</trkpt>
<trkpt lat="45.742599000" lon="5.892168000">
  <ele>415.875000</ele>
  <time>2015-10-04T08:08:29Z</time>
</trkpt>
<trkpt lat="45.742917000" lon="5.892527000">
  <ele>424.759521</ele>
  <time>2015-10-04T08:09:04Z</time>
</trkpt>
<trkpt lat="45.742935000" lon="5.891896000">
  <ele>427.479919</ele>
  <time>2015-10-04T08:10:13Z</time>
</trkpt>
<trkpt lat="45.743350000" lon="5.892180000">
  <ele>438.104156</ele>
  <time>2015-10-04T08:10:53Z</time>
</trkpt>
<trkpt lat="45.743561000" lon="5.892101000">
  <ele>442.563629</ele>
  <time>2015-10-04T08:12:30Z</time>
</trkpt>
<trkpt lat="45.744053000" lon="5.891600000">
  <ele>448.667511</ele>
  <time>2015-10-04T08:13:02Z</time>
</trkpt>
<trkpt lat="45.744287000" lon="5.891149000">
  <ele>451.021362</ele>
  <time>2015-10-04T08:13:27Z</time>
</trkpt>
<trkpt lat="45.744387000" lon="5.890988000">
  <ele>454.479309</ele>
  <time>2015-10-04T08:14:09Z</time>
</trkpt>
<trkpt lat="45.744433000" lon="5.890463000">
  <ele>451.746399</ele>
  <time>2015-10-04T08:14:48Z</time>
</trkpt>
<trkpt lat="45.744677000" lon="5.890719000">
  <ele>465.087311</ele>
  <time>2015-10-04T08:15:24Z</time>
</trkpt>
<trkpt lat="45.745205000" lon="5.890559000">
  <ele>475.677490</ele>
  <time>2015-10-04T08:16:37Z</time>
</trkpt>
<trkpt lat="45.745846000" lon="5.890260000">
  <ele>485.234009</ele>
  <time>2015-10-04T08:17:30Z</time>
</trkpt>
<trkpt lat="45.746346000" lon="5.890425000">
  <ele>495.372284</ele>
  <time>2015-10-04T08:18:17Z</time>
</trkpt>
<trkpt lat="45.747063000" lon="5.890074000">
  <ele>501.114197</ele>
  <time>2015-10-04T08:19:17Z</time>
</trkpt>
<trkpt lat="45.748460000" lon="5.889553000">
  <ele>512.381836</ele>
  <time>2015-10-04T08:20:32Z</time>
</trkpt>
<trkpt lat="45.750301000" lon="5.889361000">
  <ele>527.181458</ele>
  <time>2015-10-04T08:23:55Z</time>
</trkpt>
<trkpt lat="45.750532000" lon="5.889327000">
  <ele>528.893127</ele>
  <time>2015-10-04T08:24:05Z</time>
</trkpt>
<trkpt lat="45.751266000" lon="5.889119000">
  <ele>536.256042</ele>
  <time>2015-10-04T08:24:47Z</time>
</trkpt>
<trkpt lat="45.752814000" lon="5.888048000">
  <ele>548.161316</ele>
  <time>2015-10-04T08:26:48Z</time>
</trkpt>
<trkpt lat="45.754311000" lon="5.887368000">
  <ele>568.767517</ele>
  <time>2015-10-04T08:28:44Z</time>
</trkpt>
<trkpt lat="45.755218000" lon="5.886473000">
  <ele>575.940002</ele>
  <time>2015-10-04T08:30:22Z</time>
</trkpt>
<trkpt lat="45.755274000" lon="5.886255000">
  <ele>572.200012</ele>
  <time>2015-10-04T08:30:37Z</time>
</trkpt>
<trkpt lat="45.755846000" lon="5.885907000">
  <ele>582.690369</ele>
  <time>2015-10-04T08:31:34Z</time>
</trkpt>
<trkpt lat="45.756134000" lon="5.885712000">
  <ele>588.197571</ele>
  <time>2015-10-04T08:32:04Z</time>
</trkpt>
<trkpt lat="45.756035000" lon="5.886126000">
  <ele>595.611755</ele>
  <time>2015-10-04T08:32:50Z</time>
</trkpt>
<trkpt lat="45.756091000" lon="5.886253000">
  <ele>600.679321</ele>
  <time>2015-10-04T08:33:06Z</time>
</trkpt>
<trkpt lat="45.756213000" lon="5.886062000">
  <ele>599.728516</ele>
  <time>2015-10-04T08:33:22Z</time>
</trkpt>
<trkpt lat="45.756404000" lon="5.886096000">
  <ele>606.808228</ele>
  <time>2015-10-04T08:33:39Z</time>
</trkpt>
<trkpt lat="45.757740000" lon="5.885842000">
  <ele>629.710815</ele>
  <time>2015-10-04T08:35:40Z</time>
</trkpt>
<trkpt lat="45.759068000" lon="5.884959000">
  <ele>638.456482</ele>
  <time>2015-10-04T08:38:11Z</time>
</trkpt>
<trkpt lat="45.759552000" lon="5.884580000">
  <ele>635.762756</ele>
  <time>2015-10-04T08:39:24Z</time>
</trkpt>
<trkpt lat="45.759648000" lon="5.884932000">
  <ele>651.552002</ele>
  <time>2015-10-04T08:39:37Z</time>
</trkpt>
<trkpt lat="45.759438000" lon="5.884855000">
  <ele>643.715332</ele>
  <time>2015-10-04T08:41:39Z</time>
</trkpt>
<trkpt lat="45.759606000" lon="5.884890000">
  <ele>648.985535</ele>
  <time>2015-10-04T08:41:41Z</time>
</trkpt>
<trkpt lat="45.759459000" lon="5.884983000">
  <ele>649.206726</ele>
  <time>2015-10-04T08:42:37Z</time>
</trkpt>
<trkpt lat="45.760971000" lon="5.884664000">
  <ele>669.380005</ele>
  <time>2015-10-04T08:43:47Z</time>
</trkpt>
<trkpt lat="45.761103000" lon="5.884470000">
  <ele>664.846436</ele>
  <time>2015-10-04T08:43:56Z</time>
</trkpt>
<trkpt lat="45.764058000" lon="5.882497000">
  <ele>665.580017</ele>
  <time>2015-10-04T08:45:23Z</time>
</trkpt>
<trkpt lat="45.764891000" lon="5.881461000">
  <ele>668.584473</ele>
  <time>2015-10-04T08:46:16Z</time>
</trkpt>
<trkpt lat="45.765120000" lon="5.880986000">
  <ele>668.972290</ele>
  <time>2015-10-04T08:47:00Z</time>
</trkpt>
<trkpt lat="45.765598000" lon="5.880342000">
  <ele>667.898071</ele>
  <time>2015-10-04T08:47:54Z</time>
</trkpt>
<trkpt lat="45.765799000" lon="5.880221000">
  <ele>665.608704</ele>
  <time>2015-10-04T08:48:50Z</time>
</trkpt>
<trkpt lat="45.765202000" lon="5.880904000">
  <ele>672.231934</ele>
  <time>2015-10-04T08:48:57Z</time>
</trkpt>
<trkpt lat="45.766042000" lon="5.880089000">
  <ele>663.690491</ele>
  <time>2015-10-04T08:49:03Z</time>
</trkpt>
<trkpt lat="45.766749000" lon="5.879591000">
  <ele>656.272522</ele>
  <time>2015-10-04T08:49:33Z</time>
</trkpt>
<trkpt lat="45.767486000" lon="5.878655000">
  <ele>634.256653</ele>
  <time>2015-10-04T08:50:09Z</time>
</trkpt>
<trkpt lat="45.769118000" lon="5.877842000">
  <ele>618.864990</ele>
  <time>2015-10-04T08:51:36Z</time>
</trkpt>
<trkpt lat="45.769823000" lon="5.876945000">
  <ele>605.583984</ele>
  <time>2015-10-04T08:52:16Z</time>
</trkpt>
<trkpt lat="45.770565000" lon="5.875786000">
  <ele>611.213989</ele>
  <time>2015-10-04T08:52:50Z</time>
</trkpt>
<trkpt lat="45.771834000" lon="5.874680000">
  <ele>634.706665</ele>
  <time>2015-10-04T08:54:46Z</time>
</trkpt>
<trkpt lat="45.772470000" lon="5.874058000">
  <ele>642.443665</ele>
  <time>2015-10-04T08:55:12Z</time>
</trkpt>
<trkpt lat="45.772573000" lon="5.874048000">
  <ele>649.287109</ele>
  <time>2015-10-04T08:55:34Z</time>
</trkpt>
<trkpt lat="45.772732000" lon="5.873713000">
  <ele>634.106689</ele>
  <time>2015-10-04T08:56:11Z</time>
</trkpt>
<trkpt lat="45.773323000" lon="5.873380000">
  <ele>663.237976</ele>
  <time>2015-10-04T08:56:58Z</time>
</trkpt>
<trkpt lat="45.773769000" lon="5.872822000">
  <ele>644.614685</ele>
  <time>2015-10-04T08:57:43Z</time>
</trkpt>
<trkpt lat="45.774449000" lon="5.872561000">
  <ele>654.513000</ele>
  <time>2015-10-04T08:58:07Z</time>
</trkpt>
<trkpt lat="45.775594000" lon="5.872450000">
  <ele>639.548218</ele>
  <time>2015-10-04T08:58:51Z</time>
</trkpt>
<trkpt lat="45.776006000" lon="5.872728000">
  <ele>656.917786</ele>
  <time>2015-10-04T08:59:12Z</time>
</trkpt>
<trkpt lat="45.776923000" lon="5.872741000">
  <ele>640.847046</ele>
  <time>2015-10-04T09:00:01Z</time>
</trkpt>
<trkpt lat="45.777060000" lon="5.873065000">
  <ele>645.305359</ele>
  <time>2015-10-04T09:00:09Z</time>
</trkpt>
<trkpt lat="45.776955000" lon="5.873670000">
  <ele>654.204041</ele>
  <time>2015-10-04T09:00:36Z</time>
</trkpt>
<trkpt lat="45.776932000" lon="5.874570000">
  <ele>654.082703</ele>
  <time>2015-10-04T09:01:09Z</time>
</trkpt>
<trkpt lat="45.777154000" lon="5.875304000">
  <ele>639.770935</ele>
  <time>2015-10-04T09:01:32Z</time>
</trkpt>
<trkpt lat="45.777546000" lon="5.875669000">
  <ele>631.964111</ele>
  <time>2015-10-04T09:01:44Z</time>
</trkpt>
<trkpt lat="45.777754000" lon="5.875584000">
  <ele>630.684387</ele>
  <time>2015-10-04T09:01:56Z</time>
</trkpt>
<trkpt lat="45.777420000" lon="5.875557000">
  <ele>634.860168</ele>
  <time>2015-10-04T09:02:13Z</time>
</trkpt>
<trkpt lat="45.777090000" lon="5.874958000">
  <ele>647.063660</ele>
  <time>2015-10-04T09:02:53Z</time>
</trkpt>
<trkpt lat="45.776984000" lon="5.874722000">
  <ele>652.530396</ele>
  <time>2015-10-04T09:03:04Z</time>
</trkpt>
<trkpt lat="45.777261000" lon="5.875368000">
  <ele>638.570801</ele>
  <time>2015-10-04T09:03:42Z</time>
</trkpt>
<trkpt lat="45.777704000" lon="5.875629000">
  <ele>630.450623</ele>
  <time>2015-10-04T09:03:50Z</time>
</trkpt>
<trkpt lat="45.779532000" lon="5.874321000">
  <ele>624.144348</ele>
  <time>2015-10-04T09:04:20Z</time>
</trkpt>
<trkpt lat="45.779887000" lon="5.874386000">
  <ele>625.260010</ele>
  <time>2015-10-04T09:06:12Z</time>
</trkpt>
<trkpt lat="45.780193000" lon="5.874737000">
  <ele>631.921570</ele>
  <time>2015-10-04T09:06:45Z</time>
</trkpt>
<trkpt lat="45.780287000" lon="5.875087000">
  <ele>636.022217</ele>
  <time>2015-10-04T09:07:00Z</time>
</trkpt>
<trkpt lat="45.780116000" lon="5.875452000">
  <ele>633.890625</ele>
  <time>2015-10-04T09:07:21Z</time>
</trkpt>
<trkpt lat="45.780429000" lon="5.875311000">
  <ele>641.703735</ele>
  <time>2015-10-04T09:08:08Z</time>
</trkpt>
<trkpt lat="45.780637000" lon="5.875175000">
  <ele>647.594543</ele>
  <time>2015-10-04T09:08:21Z</time>
</trkpt>
<trkpt lat="45.781975000" lon="5.875568000">
  <ele>644.155029</ele>
  <time>2015-10-04T09:09:11Z</time>
</trkpt>
<trkpt lat="45.782986000" lon="5.875218000">
  <ele>651.150024</ele>
  <time>2015-10-04T09:09:50Z</time>
</trkpt>
<trkpt lat="45.783795000" lon="5.875307000">
  <ele>654.522522</ele>
  <time>2015-10-04T09:10:26Z</time>
</trkpt>
<trkpt lat="45.785845000" lon="5.876538000">
  <ele>670.619995</ele>
  <time>2015-10-04T09:12:39Z</time>
</trkpt>
<trkpt lat="45.786772000" lon="5.876480000">
  <ele>684.206909</ele>
  <time>2015-10-04T09:13:47Z</time>
</trkpt>
<trkpt lat="45.787436000" lon="5.877167000">
  <ele>681.147522</ele>
  <time>2015-10-04T09:14:13Z</time>
</trkpt>
<trkpt lat="45.787844000" lon="5.877100000">
  <ele>684.342468</ele>
  <time>2015-10-04T09:14:27Z</time>
</trkpt>
<trkpt lat="45.789876000" lon="5.877680000">
  <ele>699.510010</ele>
  <time>2015-10-04T09:16:36Z</time>
</trkpt>
<trkpt lat="45.790153000" lon="5.877895000">
  <ele>699.111023</ele>
  <time>2015-10-04T09:16:48Z</time>
</trkpt>
<trkpt lat="45.790608000" lon="5.878665000">
  <ele>689.970093</ele>
  <time>2015-10-04T09:17:08Z</time>
</trkpt>
<trkpt lat="45.790842000" lon="5.878608000">
  <ele>691.249817</ele>
  <time>2015-10-04T09:17:12Z</time>
</trkpt>
<trkpt lat="45.791955000" lon="5.879138000">
  <ele>696.046021</ele>
  <time>2015-10-04T09:17:40Z</time>
</trkpt>
<trkpt lat="45.792562000" lon="5.879062000">
  <ele>698.934082</ele>
  <time>2015-10-04T09:18:13Z</time>
</trkpt>
<trkpt lat="45.792894000" lon="5.878768000">
  <ele>706.958130</ele>
  <time>2015-10-04T09:18:40Z</time>
</trkpt>
<trkpt lat="45.793115000" lon="5.878694000">
  <ele>708.851318</ele>
  <time>2015-10-04T09:18:52Z</time>
</trkpt>
<trkpt lat="45.794881000" lon="5.878415000">
  <ele>723.801636</ele>
  <time>2015-10-04T09:20:54Z</time>
</trkpt>
<trkpt lat="45.795347000" lon="5.878814000">
  <ele>726.162598</ele>
  <time>2015-10-04T09:22:07Z</time>
</trkpt>
<trkpt lat="45.795741000" lon="5.879268000">
  <ele>726.955933</ele>
  <time>2015-10-04T09:22:33Z</time>
</trkpt>
<trkpt lat="45.795875000" lon="5.879381000">
  <ele>726.596985</ele>
  <time>2015-10-04T09:22:37Z</time>
</trkpt>
<trkpt lat="45.796759000" lon="5.879402000">
  <ele>727.004822</ele>
  <time>2015-10-04T09:23:12Z</time>
</trkpt>
<trkpt lat="45.799258000" lon="5.879206000">
  <ele>758.043213</ele>
  <time>2015-10-04T09:25:53Z</time>
</trkpt>
<trkpt lat="45.799237000" lon="5.879040000">
  <ele>759.582397</ele>
  <time>2015-10-04T09:26:03Z</time>
</trkpt>
<trkpt lat="45.798831000" lon="5.878762000">
  <ele>758.554993</ele>
  <time>2015-10-04T09:26:34Z</time>
</trkpt>
<trkpt lat="45.799058000" lon="5.878580000">
  <ele>764.418884</ele>
  <time>2015-10-04T09:27:03Z</time>
</trkpt>
<trkpt lat="45.799563000" lon="5.878673000">
  <ele>770.622131</ele>
  <time>2015-10-04T09:27:46Z</time>
</trkpt>
<trkpt lat="45.799553000" lon="5.878439000">
  <ele>775.541565</ele>
  <time>2015-10-04T09:27:59Z</time>
</trkpt>
<trkpt lat="45.798747000" lon="5.877392000">
  <ele>782.408020</ele>
  <time>2015-10-04T09:29:17Z</time>
</trkpt>
<trkpt lat="45.798535000" lon="5.877133000">
  <ele>785.299133</ele>
  <time>2015-10-04T09:29:34Z</time>
</trkpt>
<trkpt lat="45.798472000" lon="5.876879000">
  <ele>790.210571</ele>
  <time>2015-10-04T09:29:46Z</time>
</trkpt>
<trkpt lat="45.798792000" lon="5.877109000">
  <ele>790.599487</ele>
  <time>2015-10-04T09:30:13Z</time>
</trkpt>
<trkpt lat="45.799382000" lon="5.877421000">
  <ele>793.709778</ele>
  <time>2015-10-04T09:30:39Z</time>
</trkpt>
<trkpt lat="45.799977000" lon="5.878314000">
  <ele>793.438049</ele>
  <time>2015-10-04T09:31:05Z</time>
</trkpt>
<trkpt lat="45.800253000" lon="5.878587000">
  <ele>792.818359</ele>
  <time>2015-10-04T09:31:17Z</time>
</trkpt>
<trkpt lat="45.800973000" lon="5.878973000">
  <ele>795.210022</ele>
  <time>2015-10-04T09:31:45Z</time>
</trkpt>
<trkpt lat="45.803427000" lon="5.879178000">
  <ele>794.675964</ele>
  <time>2015-10-04T09:33:06Z</time>
</trkpt>
<trkpt lat="45.803787000" lon="5.878918000">
  <ele>803.830017</ele>
  <time>2015-10-04T09:33:38Z</time>
</trkpt>
<trkpt lat="45.804549000" lon="5.878834000">
  <ele>811.118713</ele>
  <time>2015-10-04T09:34:50Z</time>
</trkpt>
<trkpt lat="45.806712000" lon="5.878195000">
  <ele>825.114990</ele>
  <time>2015-10-04T09:36:52Z</time>
</trkpt>
<trkpt lat="45.807332000" lon="5.877784000">
  <ele>830.928894</ele>
  <time>2015-10-04T09:37:40Z</time>
</trkpt>
<trkpt lat="45.808316000" lon="5.876922000">
  <ele>837.398560</ele>
  <time>2015-10-04T09:38:41Z</time>
</trkpt>
<trkpt lat="45.809007000" lon="5.876692000">
  <ele>843.614685</ele>
  <time>2015-10-04T09:39:19Z</time>
</trkpt>
<trkpt lat="45.809741000" lon="5.876176000">
  <ele>850.675293</ele>
  <time>2015-10-04T09:40:12Z</time>
</trkpt>
<trkpt lat="45.810144000" lon="5.876167000">
  <ele>850.163208</ele>
  <time>2015-10-04T09:40:41Z</time>
</trkpt>
<trkpt lat="45.811755000" lon="5.875907000">
  <ele>857.064636</ele>
  <time>2015-10-04T09:45:10Z</time>
</trkpt>
<trkpt lat="45.812475000" lon="5.875913000">
  <ele>858.836853</ele>
  <time>2015-10-04T09:45:42Z</time>
</trkpt>
<trkpt lat="45.813048000" lon="5.875947000">
  <ele>857.576538</ele>
  <time>2015-10-04T09:45:58Z</time>
</trkpt>
<trkpt lat="45.813475000" lon="5.876058000">
  <ele>852.508545</ele>
  <time>2015-10-04T09:46:05Z</time>
</trkpt>
<trkpt lat="45.815051000" lon="5.875969000">
  <ele>845.463928</ele>
  <time>2015-10-04T09:46:35Z</time>
</trkpt>
<trkpt lat="45.815660000" lon="5.876865000">
  <ele>848.380554</ele>
  <time>2015-10-04T09:47:34Z</time>
</trkpt>
<trkpt lat="45.816344000" lon="5.877063000">
  <ele>857.348511</ele>
  <time>2015-10-04T09:48:21Z</time>
</trkpt>
<trkpt lat="45.818011000" lon="5.877976000">
  <ele>866.594604</ele>
  <time>2015-10-04T09:49:47Z</time>
</trkpt>
<trkpt lat="45.819405000" lon="5.878329000">
  <ele>870.017273</ele>
  <time>2015-10-04T09:50:56Z</time>
</trkpt>
<trkpt lat="45.820475000" lon="5.878019000">
  <ele>880.971252</ele>
  <time>2015-10-04T09:52:05Z</time>
</trkpt>
<trkpt lat="45.821646000" lon="5.877952000">
  <ele>889.765015</ele>
  <time>2015-10-04T09:53:06Z</time>
</trkpt>
<trkpt lat="45.823837000" lon="5.878778000">
  <ele>904.551514</ele>
  <time>2015-10-04T09:55:25Z</time>
</trkpt>
<trkpt lat="45.824075000" lon="5.878450000">
  <ele>915.472473</ele>
  <time>2015-10-04T09:56:01Z</time>
</trkpt>
<trkpt lat="45.824281000" lon="5.877933000">
  <ele>918.479736</ele>
  <time>2015-10-04T09:56:22Z</time>
</trkpt>
<trkpt lat="45.824491000" lon="5.877258000">
  <ele>918.130188</ele>
  <time>2015-10-04T09:56:45Z</time>
</trkpt>
<trkpt lat="45.824591000" lon="5.876365000">
  <ele>908.868774</ele>
  <time>2015-10-04T09:56:58Z</time>
</trkpt>
<trkpt lat="45.824391000" lon="5.875581000">
  <ele>918.100281</ele>
  <time>2015-10-04T09:58:14Z</time>
</trkpt>
<trkpt lat="45.823438000" lon="5.873679000">
  <ele>941.564209</ele>
  <time>2015-10-04T10:01:13Z</time>
</trkpt>
<trkpt lat="45.822781000" lon="5.873186000">
  <ele>948.722046</ele>
  <time>2015-10-04T10:02:10Z</time>
</trkpt>
<trkpt lat="45.822172000" lon="5.872238000">
  <ele>955.915649</ele>
  <time>2015-10-04T10:03:34Z</time>
</trkpt>
<trkpt lat="45.821773000" lon="5.872217000">
  <ele>958.231995</ele>
  <time>2015-10-04T10:04:05Z</time>
</trkpt>
<trkpt lat="45.821656000" lon="5.872851000">
  <ele>962.240356</ele>
  <time>2015-10-04T10:05:18Z</time>
</trkpt>
<trkpt lat="45.821596000" lon="5.873259000">
  <ele>962.197632</ele>
  <time>2015-10-04T10:05:41Z</time>
</trkpt>
<trkpt lat="45.821235000" lon="5.873435000">
  <ele>960.881104</ele>
  <time>2015-10-04T10:05:59Z</time>
</trkpt>
<trkpt lat="45.821032000" lon="5.873310000">
  <ele>959.959839</ele>
  <time>2015-10-04T10:06:20Z</time>
</trkpt>
<trkpt lat="45.820982000" lon="5.873154000">
  <ele>959.492493</ele>
  <time>2015-10-04T10:08:20Z</time>
</trkpt>
<trkpt lat="45.821102000" lon="5.873316000">
  <ele>960.373108</ele>
  <time>2015-10-04T10:12:04Z</time>
</trkpt>
<trkpt lat="45.821030000" lon="5.873547000">
  <ele>959.993958</ele>
  <time>2015-10-04T10:12:28Z</time>
</trkpt>
<trkpt lat="45.821090000" lon="5.873342000">
  <ele>960.287476</ele>
  <time>2015-10-04T10:12:40Z</time>
</trkpt>
<trkpt lat="45.820574000" lon="5.873270000">
  <ele>957.699097</ele>
  <time>2015-10-04T10:13:33Z</time>
</trkpt>
<trkpt lat="45.818975000" lon="5.872918000">
  <ele>946.660522</ele>
  <time>2015-10-04T10:14:07Z</time>
</trkpt>
<trkpt lat="45.818606000" lon="5.872701000">
  <ele>948.091187</ele>
  <time>2015-10-04T10:14:17Z</time>
</trkpt>
<trkpt lat="45.818322000" lon="5.872055000">
  <ele>953.410706</ele>
  <time>2015-10-04T10:14:46Z</time>
</trkpt>
<trkpt lat="45.817630000" lon="5.871470000">
  <ele>953.221252</ele>
  <time>2015-10-04T10:15:44Z</time>
</trkpt>
<trkpt lat="45.817323000" lon="5.870562000">
  <ele>959.684326</ele>
  <time>2015-10-04T10:16:31Z</time>
</trkpt>
<trkpt lat="45.817070000" lon="5.870223000">
  <ele>958.188660</ele>
  <time>2015-10-04T10:16:47Z</time>
</trkpt>
<trkpt lat="45.815742000" lon="5.868936000">
  <ele>952.628479</ele>
  <time>2015-10-04T10:17:30Z</time>
</trkpt>
<trkpt lat="45.813708000" lon="5.868313000">
  <ele>953.394287</ele>
  <time>2015-10-04T10:21:19Z</time>
</trkpt>
<trkpt lat="45.813453000" lon="5.868226000">
  <ele>953.760132</ele>
  <time>2015-10-04T10:21:33Z</time>
</trkpt>
<trkpt lat="45.811833000" lon="5.868342000">
  <ele>951.794006</ele>
  <time>2015-10-04T10:22:29Z</time>
</trkpt>
<trkpt lat="45.811630000" lon="5.868440000">
  <ele>951.369263</ele>
  <time>2015-10-04T10:22:35Z</time>
</trkpt>
<trkpt lat="45.811025000" lon="5.868064000">
  <ele>950.912415</ele>
  <time>2015-10-04T10:22:49Z</time>
</trkpt>
<trkpt lat="45.809516000" lon="5.868032000">
  <ele>948.825012</ele>
  <time>2015-10-04T10:23:33Z</time>
</trkpt>
<trkpt lat="45.809169000" lon="5.868169000">
  <ele>947.432495</ele>
  <time>2015-10-04T10:23:43Z</time>
</trkpt>
<trkpt lat="45.808631000" lon="5.868275000">
  <ele>940.594666</ele>
  <time>2015-10-04T10:23:57Z</time>
</trkpt>
<trkpt lat="45.807608000" lon="5.868016000">
  <ele>920.991028</ele>
  <time>2015-10-04T10:24:24Z</time>
</trkpt>
<trkpt lat="45.807428000" lon="5.868155000">
  <ele>919.354858</ele>
  <time>2015-10-04T10:24:29Z</time>
</trkpt>
<trkpt lat="45.807060000" lon="5.868943000">
  <ele>913.168274</ele>
  <time>2015-10-04T10:24:41Z</time>
</trkpt>
<trkpt lat="45.806966000" lon="5.869087000">
  <ele>912.443726</ele>
  <time>2015-10-04T10:24:44Z</time>
</trkpt>
<trkpt lat="45.805800000" lon="5.870283000">
  <ele>903.505371</ele>
  <time>2015-10-04T10:25:20Z</time>
</trkpt>
<trkpt lat="45.805483000" lon="5.870562000">
  <ele>898.146118</ele>
  <time>2015-10-04T10:25:29Z</time>
</trkpt>
<trkpt lat="45.805366000" lon="5.870275000">
  <ele>891.855164</ele>
  <time>2015-10-04T10:26:45Z</time>
</trkpt>
<trkpt lat="45.805639000" lon="5.869763000">
  <ele>889.885010</ele>
  <time>2015-10-04T10:26:54Z</time>
</trkpt>
<trkpt lat="45.805749000" lon="5.869454000">
  <ele>887.193787</ele>
  <time>2015-10-04T10:26:59Z</time>
</trkpt>
<trkpt lat="45.805714000" lon="5.869204000">
  <ele>883.621765</ele>
  <time>2015-10-04T10:27:05Z</time>
</trkpt>
<trkpt lat="45.805899000" lon="5.869176000">
  <ele>888.444397</ele>
  <time>2015-10-04T10:27:17Z</time>
</trkpt>
<trkpt lat="45.806122000" lon="5.868384000">
  <ele>890.736206</ele>
  <time>2015-10-04T10:27:43Z</time>
</trkpt>
<trkpt lat="45.806777000" lon="5.866805000">
  <ele>892.462830</ele>
  <time>2015-10-04T10:28:39Z</time>
</trkpt>
<trkpt lat="45.808217000" lon="5.866432000">
  <ele>906.243103</ele>
  <time>2015-10-04T10:29:47Z</time>
</trkpt>
<trkpt lat="45.808593000" lon="5.866138000">
  <ele>909.055359</ele>
  <time>2015-10-04T10:30:12Z</time>
</trkpt>
<trkpt lat="45.808245000" lon="5.865856000">
  <ele>906.138428</ele>
  <time>2015-10-04T10:30:36Z</time>
</trkpt>
<trkpt lat="45.808240000" lon="5.865411000">
  <ele>903.101074</ele>
  <time>2015-10-04T10:31:00Z</time>
</trkpt>
<trkpt lat="45.808183000" lon="5.865213000">
  <ele>901.332214</ele>
  <time>2015-10-04T10:31:11Z</time>
</trkpt>
<trkpt lat="45.807966000" lon="5.865089000">
  <ele>896.886169</ele>
  <time>2015-10-04T10:31:20Z</time>
</trkpt>
<trkpt lat="45.806950000" lon="5.865285000">
  <ele>891.960022</ele>
  <time>2015-10-04T10:31:59Z</time>
</trkpt>
<trkpt lat="45.806109000" lon="5.865623000">
  <ele>886.777344</ele>
  <time>2015-10-04T10:32:30Z</time>
</trkpt>
<trkpt lat="45.805644000" lon="5.865962000">
  <ele>877.283386</ele>
  <time>2015-10-04T10:32:43Z</time>
</trkpt>
<trkpt lat="45.805141000" lon="5.866471000">
  <ele>866.791199</ele>
  <time>2015-10-04T10:33:07Z</time>
</trkpt>
<trkpt lat="45.805006000" lon="5.867279000">
  <ele>862.499756</ele>


Partager le fichier


Télécharger utgtrack-10835.gpx


Télécharger utgtrack-10835.gpx